sensor_id;sensor_type;location;lat;lon;timestamp;P1;durP1;ratioP1;P2;durP2;ratioP2
5209;SDS011;2624;48.048;11.706;2022-12-29T00:02:53;0.80;;;0.80;;
5209;SDS011;2624;48.048;11.706;2022-12-29T00:07:56;0.60;;;0.60;;
5209;SDS011;2624;48.048;11.706;2022-12-29T00:12:58;1.63;;;0.83;;
5209;SDS011;2624;48.048;11.706;2022-12-29T00:18:17;2.30;;;0.97;;
5209;SDS011;2624;48.048;11.706;2022-12-29T00:23:20;1.50;;;1.40;;
5209;SDS011;2624;48.048;11.706;2022-12-29T00:28:40;0.73;;;0.73;;
5209;SDS011;2624;48.048;11.706;2022-12-29T00:33:59;0.83;;;0.80;;
5209;SDS011;2624;48.048;11.706;2022-12-29T00:39:20;0.80;;;0.80;;
5209;SDS011;2624;48.048;11.706;2022-12-29T00:44:39;1.10;;;1.10;;
5209;SDS011;2624;48.048;11.706;2022-12-29T00:49:40;0.70;;;0.70;;
5209;SDS011;2624;48.048;11.706;2022-12-29T00:54:43;0.90;;;0.90;;
5209;SDS011;2624;48.048;11.706;2022-12-29T00:59:45;0.93;;;0.93;;
5209;SDS011;2624;48.048;11.706;2022-12-29T01:04:47;0.70;;;0.70;;
5209;SDS011;2624;48.048;11.706;2022-12-29T01:09:50;4.53;;;0.73;;
5209;SDS011;2624;48.048;11.706;2022-12-29T01:15:10;0.87;;;0.73;;
5209;SDS011;2624;48.048;11.706;2022-12-29T01:20:13;0.40;;;0.40;;
5209;SDS011;2624;48.048;11.706;2022-12-29T01:25:16;1.80;;;0.90;;
5209;SDS011;2624;48.048;11.706;2022-12-29T01:30:18;2.33;;;0.73;;
5209;SDS011;2624;48.048;11.706;2022-12-29T01:35:20;0.80;;;0.80;;
5209;SDS011;2624;48.048;11.706;2022-12-29T01:40:23;0.77;;;0.60;;
5209;SDS011;2624;48.048;11.706;2022-12-29T01:45:25;0.60;;;0.60;;
5209;SDS011;2624;48.048;11.706;2022-12-29T01:50:28;0.60;;;0.60;;
5209;SDS011;2624;48.048;11.706;2022-12-29T01:55:35;0.97;;;0.60;;
5209;SDS011;2624;48.048;11.706;2022-12-29T02:00:41;0.93;;;0.87;;
5209;SDS011;2624;48.048;11.706;2022-12-29T02:05:45;0.63;;;0.63;;
5209;SDS011;2624;48.048;11.706;2022-12-29T02:10:52;0.40;;;0.40;;
5209;SDS011;2624;48.048;11.706;2022-12-29T02:15:57;0.80;;;0.60;;
5209;SDS011;2624;48.048;11.706;2022-12-29T02:26:57;0.87;;;0.87;;
5209;SDS011;2624;48.048;11.706;2022-12-29T02:32:21;0.53;;;0.53;;
5209;SDS011;2624;48.048;11.706;2022-12-29T02:37:30;0.50;;;0.50;;
5209;SDS011;2624;48.048;11.706;2022-12-29T02:42:41;0.50;;;0.50;;
5209;SDS011;2624;48.048;11.706;2022-12-29T02:47:53;0.40;;;0.40;;
5209;SDS011;2624;48.048;11.706;2022-12-29T02:53:00;0.70;;;0.70;;
5209;SDS011;2624;48.048;11.706;2022-12-29T02:58:15;2.67;;;0.60;;
5209;SDS011;2624;48.048;11.706;2022-12-29T03:03:22;0.57;;;0.57;;
5209;SDS011;2624;48.048;11.706;2022-12-29T03:08:33;0.40;;;0.40;;
5209;SDS011;2624;48.048;11.706;2022-12-29T03:13:43;1.43;;;0.87;;
5209;SDS011;2624;48.048;11.706;2022-12-29T03:19:08;1.17;;;0.50;;
5209;SDS011;2624;48.048;11.706;2022-12-29T03:24:15;0.70;;;0.70;;
5209;SDS011;2624;48.048;11.706;2022-12-29T03:29:20;0.40;;;0.40;;
5209;SDS011;2624;48.048;11.706;2022-12-29T03:34:23;4.70;;;0.80;;
5209;SDS011;2624;48.048;11.706;2022-12-29T03:39:26;0.50;;;0.50;;
5209;SDS011;2624;48.048;11.706;2022-12-29T03:44:32;0.50;;;0.50;;
5209;SDS011;2624;48.048;11.706;2022-12-29T03:49:37;0.63;;;0.63;;
5209;SDS011;2624;48.048;11.706;2022-12-29T03:54:39;0.60;;;0.60;;
5209;SDS011;2624;48.048;11.706;2022-12-29T03:59:41;0.60;;;0.60;;
5209;SDS011;2624;48.048;11.706;2022-12-29T04:04:44;1.00;;;0.60;;
5209;SDS011;2624;48.048;11.706;2022-12-29T04:09:46;0.50;;;0.50;;
5209;SDS011;2624;48.048;11.706;2022-12-29T04:14:47;0.57;;;0.57;;
5209;SDS011;2624;48.048;11.706;2022-12-29T04:19:51;1.23;;;0.60;;
5209;SDS011;2624;48.048;11.706;2022-12-29T04:25:12;0.40;;;0.40;;
5209;SDS011;2624;48.048;11.706;2022-12-29T04:30:14;0.90;;;0.90;;
5209;SDS011;2624;48.048;11.706;2022-12-29T04:35:17;0.70;;;0.70;;
5209;SDS011;2624;48.048;11.706;2022-12-29T04:40:19;0.47;;;0.47;;
5209;SDS011;2624;48.048;11.706;2022-12-29T04:45:21;0.50;;;0.50;;
5209;SDS011;2624;48.048;11.706;2022-12-29T04:50:24;0.70;;;0.43;;
5209;SDS011;2624;48.048;11.706;2022-12-29T04:55:26;0.40;;;0.40;;
5209;SDS011;2624;48.048;11.706;2022-12-29T05:00:28;0.50;;;0.50;;
5209;SDS011;2624;48.048;11.706;2022-12-29T05:05:31;0.57;;;0.57;;
5209;SDS011;2624;48.048;11.706;2022-12-29T05:10:32;0.60;;;0.60;;
5209;SDS011;2624;48.048;11.706;2022-12-29T05:15:34;0.40;;;0.40;;
5209;SDS011;2624;48.048;11.706;2022-12-29T05:20:37;0.63;;;0.63;;
5209;SDS011;2624;48.048;11.706;2022-12-29T05:25:39;0.60;;;0.60;;
5209;SDS011;2624;48.048;11.706;2022-12-29T05:30:41;1.73;;;0.90;;
5209;SDS011;2624;48.048;11.706;2022-12-29T05:35:44;0.77;;;0.60;;
5209;SDS011;2624;48.048;11.706;2022-12-29T05:40:46;1.03;;;0.60;;
5209;SDS011;2624;48.048;11.706;2022-12-29T05:45:48;0.77;;;0.77;;
5209;SDS011;2624;48.048;11.706;2022-12-29T05:50:51;3.07;;;0.57;;
5209;SDS011;2624;48.048;11.706;2022-12-29T05:55:53;0.70;;;0.60;;
5209;SDS011;2624;48.048;11.706;2022-12-29T06:00:54;0.40;;;0.40;;
5209;SDS011;2624;48.048;11.706;2022-12-29T06:05:57;0.50;;;0.50;;
5209;SDS011;2624;48.048;11.706;2022-12-29T06:10:59;1.23;;;0.67;;
5209;SDS011;2624;48.048;11.706;2022-12-29T06:16:01;0.70;;;0.70;;
5209;SDS011;2624;48.048;11.706;2022-12-29T06:21:05;0.60;;;0.60;;
5209;SDS011;2624;48.048;11.706;2022-12-29T06:26:06;3.07;;;0.73;;
5209;SDS011;2624;48.048;11.706;2022-12-29T06:31:09;0.60;;;0.60;;
5209;SDS011;2624;48.048;11.706;2022-12-29T06:36:12;0.53;;;0.53;;
5209;SDS011;2624;48.048;11.706;2022-12-29T06:41:14;0.60;;;0.60;;
5209;SDS011;2624;48.048;11.706;2022-12-29T06:46:16;0.83;;;0.83;;
5209;SDS011;2624;48.048;11.706;2022-12-29T06:51:19;0.60;;;0.60;;
5209;SDS011;2624;48.048;11.706;2022-12-29T06:56:21;0.53;;;0.53;;
5209;SDS011;2624;48.048;11.706;2022-12-29T07:01:22;0.93;;;0.93;;
5209;SDS011;2624;48.048;11.706;2022-12-29T07:06:25;1.10;;;1.10;;
5209;SDS011;2624;48.048;11.706;2022-12-29T07:11:27;0.80;;;0.80;;
5209;SDS011;2624;48.048;11.706;2022-12-29T07:16:29;1.53;;;0.73;;
5209;SDS011;2624;48.048;11.706;2022-12-29T07:21:32;0.70;;;0.70;;
5209;SDS011;2624;48.048;11.706;2022-12-29T07:26:34;0.60;;;0.60;;
5209;SDS011;2624;48.048;11.706;2022-12-29T07:31:36;1.07;;;0.80;;
5209;SDS011;2624;48.048;11.706;2022-12-29T07:36:39;0.97;;;0.80;;
5209;SDS011;2624;48.048;11.706;2022-12-29T07:41:41;1.37;;;0.80;;
5209;SDS011;2624;48.048;11.706;2022-12-29T07:46:42;0.70;;;0.70;;
5209;SDS011;2624;48.048;11.706;2022-12-29T07:51:45;1.10;;;0.90;;
5209;SDS011;2624;48.048;11.706;2022-12-29T07:56:47;1.83;;;0.70;;
5209;SDS011;2624;48.048;11.706;2022-12-29T08:01:49;0.70;;;0.70;;
5209;SDS011;2624;48.048;11.706;2022-12-29T08:06:52;8.10;;;1.13;;
5209;SDS011;2624;48.048;11.706;2022-12-29T08:11:54;0.67;;;0.67;;
5209;SDS011;2624;48.048;11.706;2022-12-29T08:16:56;3.03;;;0.70;;
5209;SDS011;2624;48.048;11.706;2022-12-29T08:21:59;0.93;;;0.90;;
5209;SDS011;2624;48.048;11.706;2022-12-29T08:27:00;1.03;;;0.73;;
5209;SDS011;2624;48.048;11.706;2022-12-29T08:32:02;0.50;;;0.50;;
5209;SDS011;2624;48.048;11.706;2022-12-29T08:37:06;0.57;;;0.57;;
5209;SDS011;2624;48.048;11.706;2022-12-29T08:42:07;0.60;;;0.60;;
5209;SDS011;2624;48.048;11.706;2022-12-29T08:47:09;1.03;;;1.00;;
5209;SDS011;2624;48.048;11.706;2022-12-29T08:52:13;0.90;;;0.90;;
5209;SDS011;2624;48.048;11.706;2022-12-29T08:57:14;0.70;;;0.70;;
5209;SDS011;2624;48.048;11.706;2022-12-29T09:02:16;7.70;;;1.17;;
5209;SDS011;2624;48.048;11.706;2022-12-29T09:07:19;1.77;;;0.90;;
5209;SDS011;2624;48.048;11.706;2022-12-29T09:12:21;0.73;;;0.67;;
5209;SDS011;2624;48.048;11.706;2022-12-29T09:17:23;3.53;;;0.90;;
5209;SDS011;2624;48.048;11.706;2022-12-29T09:22:45;1.23;;;1.03;;
5209;SDS011;2624;48.048;11.706;2022-12-29T09:27:47;1.00;;;1.00;;
5209;SDS011;2624;48.048;11.706;2022-12-29T09:32:49;0.90;;;0.90;;
5209;SDS011;2624;48.048;11.706;2022-12-29T09:37:52;0.97;;;0.97;;
5209;SDS011;2624;48.048;11.706;2022-12-29T09:48:45;0.77;;;0.77;;
5209;SDS011;2624;48.048;11.706;2022-12-29T09:53:53;1.93;;;0.77;;
5209;SDS011;2624;48.048;11.706;2022-12-29T09:59:00;1.03;;;0.63;;
5209;SDS011;2624;48.048;11.706;2022-12-29T10:04:05;1.03;;;1.03;;
5209;SDS011;2624;48.048;11.706;2022-12-29T10:09:11;0.70;;;0.70;;
5209;SDS011;2624;48.048;11.706;2022-12-29T10:14:26;1.23;;;0.90;;
5209;SDS011;2624;48.048;11.706;2022-12-29T10:19:41;0.83;;;0.83;;
5209;SDS011;2624;48.048;11.706;2022-12-29T10:24:57;0.90;;;0.90;;
5209;SDS011;2624;48.048;11.706;2022-12-29T10:30:02;0.80;;;0.80;;
5209;SDS011;2624;48.048;11.706;2022-12-29T10:35:06;1.00;;;0.73;;
5209;SDS011;2624;48.048;11.706;2022-12-29T10:40:16;1.00;;;1.00;;
5209;SDS011;2624;48.048;11.706;2022-12-29T10:45:24;0.80;;;0.80;;
5209;SDS011;2624;48.048;11.706;2022-12-29T10:50:29;1.93;;;1.20;;
5209;SDS011;2624;48.048;11.706;2022-12-29T10:55:33;2.13;;;1.20;;
5209;SDS011;2624;48.048;11.706;2022-12-29T11:00:37;1.73;;;0.83;;
5209;SDS011;2624;48.048;11.706;2022-12-29T11:05:40;1.27;;;0.60;;
5209;SDS011;2624;48.048;11.706;2022-12-29T11:10:56;1.53;;;1.23;;
5209;SDS011;2624;48.048;11.706;2022-12-29T11:15:59;1.00;;;0.90;;
5209;SDS011;2624;48.048;11.706;2022-12-29T11:21:03;0.80;;;0.70;;
5209;SDS011;2624;48.048;11.706;2022-12-29T11:26:15;0.67;;;0.67;;
5209;SDS011;2624;48.048;11.706;2022-12-29T11:31:20;0.73;;;0.70;;
5209;SDS011;2624;48.048;11.706;2022-12-29T11:36:23;0.60;;;0.60;;
5209;SDS011;2624;48.048;11.706;2022-12-29T11:41:27;1.10;;;1.10;;
5209;SDS011;2624;48.048;11.706;2022-12-29T11:46:32;0.83;;;0.70;;
5209;SDS011;2624;48.048;11.706;2022-12-29T11:51:38;0.60;;;0.60;;
5209;SDS011;2624;48.048;11.706;2022-12-29T11:56:46;2.20;;;1.00;;
5209;SDS011;2624;48.048;11.706;2022-12-29T12:01:47;0.97;;;0.97;;
5209;SDS011;2624;48.048;11.706;2022-12-29T12:06:53;0.93;;;0.83;;
5209;SDS011;2624;48.048;11.706;2022-12-29T12:12:03;0.90;;;0.90;;
5209;SDS011;2624;48.048;11.706;2022-12-29T12:17:09;0.87;;;0.80;;
5209;SDS011;2624;48.048;11.706;2022-12-29T12:22:15;1.13;;;1.00;;
5209;SDS011;2624;48.048;11.706;2022-12-29T12:27:26;1.13;;;1.03;;
5209;SDS011;2624;48.048;11.706;2022-12-29T12:32:34;1.97;;;1.70;;
5209;SDS011;2624;48.048;11.706;2022-12-29T12:43:23;1.03;;;1.03;;
5209;SDS011;2624;48.048;11.706;2022-12-29T12:48:38;1.63;;;1.03;;
5209;SDS011;2624;48.048;11.706;2022-12-29T12:53:58;1.13;;;1.03;;
5209;SDS011;2624;48.048;11.706;2022-12-29T12:59:15;4.60;;;2.40;;
5209;SDS011;2624;48.048;11.706;2022-12-29T13:04:40;2.10;;;1.60;;
5209;SDS011;2624;48.048;11.706;2022-12-29T13:10:03;0.93;;;0.90;;
5209;SDS011;2624;48.048;11.706;2022-12-29T13:15:21;0.67;;;0.67;;
5209;SDS011;2624;48.048;11.706;2022-12-29T13:20:38;6.20;;;0.80;;
5209;SDS011;2624;48.048;11.706;2022-12-29T13:25:45;1.63;;;0.70;;
5209;SDS011;2624;48.048;11.706;2022-12-29T13:30:55;0.70;;;0.70;;
5209;SDS011;2624;48.048;11.706;2022-12-29T13:36:02;0.80;;;0.80;;
5209;SDS011;2624;48.048;11.706;2022-12-29T13:41:11;0.60;;;0.60;;
5209;SDS011;2624;48.048;11.706;2022-12-29T13:46:20;0.80;;;0.80;;
5209;SDS011;2624;48.048;11.706;2022-12-29T13:51:25;0.53;;;0.53;;
5209;SDS011;2624;48.048;11.706;2022-12-29T13:56:31;0.60;;;0.60;;
5209;SDS011;2624;48.048;11.706;2022-12-29T14:01:41;0.53;;;0.53;;
5209;SDS011;2624;48.048;11.706;2022-12-29T14:06:58;0.80;;;0.80;;
5209;SDS011;2624;48.048;11.706;2022-12-29T14:12:05;2.30;;;0.90;;
5209;SDS011;2624;48.048;11.706;2022-12-29T14:17:27;0.70;;;0.63;;
5209;SDS011;2624;48.048;11.706;2022-12-29T14:22:29;1.13;;;0.80;;
5209;SDS011;2624;48.048;11.706;2022-12-29T14:33:01;3.00;;;0.87;;
5209;SDS011;2624;48.048;11.706;2022-12-29T14:38:05;1.83;;;1.03;;
5209;SDS011;2624;48.048;11.706;2022-12-29T14:43:11;0.90;;;0.90;;
5209;SDS011;2624;48.048;11.706;2022-12-29T14:48:25;4.30;;;2.37;;
5209;SDS011;2624;48.048;11.706;2022-12-29T14:53:41;3.10;;;1.80;;
5209;SDS011;2624;48.048;11.706;2022-12-29T14:58:47;9.00;;;3.73;;
5209;SDS011;2624;48.048;11.706;2022-12-29T15:03:54;10.63;;;3.60;;
5209;SDS011;2624;48.048;11.706;2022-12-29T15:09:03;9.13;;;2.10;;
5209;SDS011;2624;48.048;11.706;2022-12-29T15:19:42;3.43;;;2.00;;
5209;SDS011;2624;48.048;11.706;2022-12-29T15:24:43;1.13;;;1.03;;
5209;SDS011;2624;48.048;11.706;2022-12-29T15:29:46;1.20;;;1.20;;
5209;SDS011;2624;48.048;11.706;2022-12-29T15:34:50;5.00;;;2.70;;
5209;SDS011;2624;48.048;11.706;2022-12-29T15:39:54;1.90;;;0.93;;
5209;SDS011;2624;48.048;11.706;2022-12-29T15:44:56;2.40;;;2.03;;
5209;SDS011;2624;48.048;11.706;2022-12-29T15:50:01;6.37;;;2.47;;
5209;SDS011;2624;48.048;11.706;2022-12-29T15:55:05;10.70;;;4.03;;
5209;SDS011;2624;48.048;11.706;2022-12-29T16:00:21;5.10;;;1.90;;
5209;SDS011;2624;48.048;11.706;2022-12-29T16:05:27;1.20;;;1.07;;
5209;SDS011;2624;48.048;11.706;2022-12-29T16:10:35;1.80;;;1.17;;
5209;SDS011;2624;48.048;11.706;2022-12-29T16:15:40;1.17;;;0.77;;
5209;SDS011;2624;48.048;11.706;2022-12-29T16:20:43;1.83;;;1.00;;
5209;SDS011;2624;48.048;11.706;2022-12-29T16:25:45;1.47;;;1.20;;
5209;SDS011;2624;48.048;11.706;2022-12-29T16:30:47;1.00;;;0.90;;
5209;SDS011;2624;48.048;11.706;2022-12-29T16:35:59;3.20;;;1.80;;
5209;SDS011;2624;48.048;11.706;2022-12-29T16:41:02;1.60;;;1.27;;
5209;SDS011;2624;48.048;11.706;2022-12-29T16:46:21;1.13;;;1.03;;
5209;SDS011;2624;48.048;11.706;2022-12-29T16:51:30;0.80;;;0.80;;
5209;SDS011;2624;48.048;11.706;2022-12-29T16:56:34;0.97;;;0.77;;
5209;SDS011;2624;48.048;11.706;2022-12-29T17:01:38;1.07;;;1.07;;
5209;SDS011;2624;48.048;11.706;2022-12-29T17:06:42;0.53;;;0.53;;
5209;SDS011;2624;48.048;11.706;2022-12-29T17:11:44;1.50;;;1.37;;
5209;SDS011;2624;48.048;11.706;2022-12-29T17:16:58;3.53;;;1.90;;
5209;SDS011;2624;48.048;11.706;2022-12-29T17:22:02;1.80;;;1.67;;
5209;SDS011;2624;48.048;11.706;2022-12-29T17:27:11;2.90;;;1.73;;
5209;SDS011;2624;48.048;11.706;2022-12-29T17:32:25;5.43;;;2.90;;
5209;SDS011;2624;48.048;11.706;2022-12-29T17:37:29;3.10;;;2.40;;
5209;SDS011;2624;48.048;11.706;2022-12-29T17:42:34;1.70;;;1.40;;
5209;SDS011;2624;48.048;11.706;2022-12-29T17:47:38;2.20;;;1.97;;
5209;SDS011;2624;48.048;11.706;2022-12-29T17:52:42;3.60;;;1.90;;
5209;SDS011;2624;48.048;11.706;2022-12-29T17:57:52;2.23;;;2.13;;
5209;SDS011;2624;48.048;11.706;2022-12-29T18:02:54;2.50;;;2.30;;
5209;SDS011;2624;48.048;11.706;2022-12-29T18:07:58;2.43;;;2.23;;
5209;SDS011;2624;48.048;11.706;2022-12-29T18:13:00;3.63;;;2.90;;
5209;SDS011;2624;48.048;11.706;2022-12-29T18:18:08;7.63;;;3.80;;
5209;SDS011;2624;48.048;11.706;2022-12-29T18:23:15;30.20;;;10.97;;
5209;SDS011;2624;48.048;11.706;2022-12-29T18:28:20;15.70;;;7.40;;
5209;SDS011;2624;48.048;11.706;2022-12-29T18:33:22;4.20;;;2.67;;
5209;SDS011;2624;48.048;11.706;2022-12-29T18:38:26;7.57;;;3.80;;
5209;SDS011;2624;48.048;11.706;2022-12-29T18:43:29;9.40;;;4.27;;
5209;SDS011;2624;48.048;11.706;2022-12-29T18:48:30;6.23;;;3.50;;
5209;SDS011;2624;48.048;11.706;2022-12-29T18:53:33;5.87;;;3.60;;
5209;SDS011;2624;48.048;11.706;2022-12-29T18:58:36;4.63;;;2.77;;
5209;SDS011;2624;48.048;11.706;2022-12-29T19:03:38;7.47;;;4.27;;
5209;SDS011;2624;48.048;11.706;2022-12-29T19:08:42;6.27;;;3.40;;
5209;SDS011;2624;48.048;11.706;2022-12-29T19:13:43;2.17;;;1.80;;
5209;SDS011;2624;48.048;11.706;2022-12-29T19:18:45;2.50;;;2.30;;
5209;SDS011;2624;48.048;11.706;2022-12-29T19:23:48;4.20;;;3.90;;
5209;SDS011;2624;48.048;11.706;2022-12-29T19:28:50;7.27;;;3.10;;
5209;SDS011;2624;48.048;11.706;2022-12-29T19:33:52;2.53;;;2.33;;
5209;SDS011;2624;48.048;11.706;2022-12-29T19:38:56;3.40;;;2.30;;
5209;SDS011;2624;48.048;11.706;2022-12-29T19:43:58;2.83;;;2.47;;
5209;SDS011;2624;48.048;11.706;2022-12-29T19:48:59;3.00;;;2.33;;
5209;SDS011;2624;48.048;11.706;2022-12-29T19:54:02;7.83;;;3.07;;
5209;SDS011;2624;48.048;11.706;2022-12-29T19:59:04;6.60;;;2.80;;
5209;SDS011;2624;48.048;11.706;2022-12-29T20:04:06;12.47;;;2.60;;
5209;SDS011;2624;48.048;11.706;2022-12-29T20:09:09;2.90;;;1.50;;
5209;SDS011;2624;48.048;11.706;2022-12-29T20:14:11;1.87;;;1.77;;
5209;SDS011;2624;48.048;11.706;2022-12-29T20:19:13;3.47;;;2.43;;
5209;SDS011;2624;48.048;11.706;2022-12-29T20:24:16;2.43;;;2.23;;
5209;SDS011;2624;48.048;11.706;2022-12-29T20:29:17;2.73;;;1.93;;
5209;SDS011;2624;48.048;11.706;2022-12-29T20:34:19;1.80;;;1.70;;
5209;SDS011;2624;48.048;11.706;2022-12-29T20:39:22;2.00;;;1.90;;
5209;SDS011;2624;48.048;11.706;2022-12-29T20:44:24;1.50;;;1.40;;
5209;SDS011;2624;48.048;11.706;2022-12-29T20:49:26;2.17;;;1.97;;
5209;SDS011;2624;48.048;11.706;2022-12-29T20:54:29;1.50;;;1.10;;
5209;SDS011;2624;48.048;11.706;2022-12-29T20:59:31;1.07;;;0.90;;
5209;SDS011;2624;48.048;11.706;2022-12-29T21:04:33;1.43;;;1.07;;
5209;SDS011;2624;48.048;11.706;2022-12-29T21:09:36;0.97;;;0.97;;
5209;SDS011;2624;48.048;11.706;2022-12-29T21:14:39;0.83;;;0.83;;
5209;SDS011;2624;48.048;11.706;2022-12-29T21:19:41;1.07;;;1.07;;
5209;SDS011;2624;48.048;11.706;2022-12-29T21:24:44;1.13;;;1.07;;
5209;SDS011;2624;48.048;11.706;2022-12-29T21:29:46;0.90;;;0.90;;
5209;SDS011;2624;48.048;11.706;2022-12-29T21:34:47;1.07;;;0.87;;
5209;SDS011;2624;48.048;11.706;2022-12-29T21:39:50;2.20;;;1.93;;
5209;SDS011;2624;48.048;11.706;2022-12-29T21:44:52;2.63;;;1.53;;
5209;SDS011;2624;48.048;11.706;2022-12-29T21:50:11;1.37;;;1.27;;
5209;SDS011;2624;48.048;11.706;2022-12-29T21:55:14;4.03;;;1.87;;
5209;SDS011;2624;48.048;11.706;2022-12-29T22:00:16;1.40;;;1.30;;
5209;SDS011;2624;48.048;11.706;2022-12-29T22:05:36;1.47;;;1.30;;
5209;SDS011;2624;48.048;11.706;2022-12-29T22:10:56;4.93;;;2.60;;
5209;SDS011;2624;48.048;11.706;2022-12-29T22:16:16;3.17;;;2.07;;
5209;SDS011;2624;48.048;11.706;2022-12-29T22:21:18;1.73;;;1.63;;
5209;SDS011;2624;48.048;11.706;2022-12-29T22:26:21;4.33;;;2.13;;
5209;SDS011;2624;48.048;11.706;2022-12-29T22:31:23;1.30;;;1.20;;
5209;SDS011;2624;48.048;11.706;2022-12-29T22:36:27;0.70;;;0.70;;
5209;SDS011;2624;48.048;11.706;2022-12-29T22:41:32;2.00;;;1.90;;
5209;SDS011;2624;48.048;11.706;2022-12-29T22:46:34;2.13;;;1.50;;
5209;SDS011;2624;48.048;11.706;2022-12-29T22:51:35;2.50;;;2.30;;
5209;SDS011;2624;48.048;11.706;2022-12-29T22:56:39;4.00;;;2.90;;
5209;SDS011;2624;48.048;11.706;2022-12-29T23:01:41;2.20;;;2.10;;
5209;SDS011;2624;48.048;11.706;2022-12-29T23:06:43;6.00;;;2.70;;
5209;SDS011;2624;48.048;11.706;2022-12-29T23:11:46;1.83;;;1.57;;
5209;SDS011;2624;48.048;11.706;2022-12-29T23:16:48;0.93;;;0.93;;
5209;SDS011;2624;48.048;11.706;2022-12-29T23:21:49;1.17;;;1.07;;
5209;SDS011;2624;48.048;11.706;2022-12-29T23:26:52;0.90;;;0.90;;
5209;SDS011;2624;48.048;11.706;2022-12-29T23:31:54;0.90;;;0.90;;
5209;SDS011;2624;48.048;11.706;2022-12-29T23:36:56;0.90;;;0.90;;
5209;SDS011;2624;48.048;11.706;2022-12-29T23:41:59;1.63;;;1.10;;
5209;SDS011;2624;48.048;11.706;2022-12-29T23:47:01;2.50;;;1.00;;
5209;SDS011;2624;48.048;11.706;2022-12-29T23:52:03;1.10;;;0.80;;
5209;SDS011;2624;48.048;11.706;2022-12-29T23:57:06;1.03;;;0.50;;
